Healing Springs, Alabama
Current Conditions -  °F | °C
As of 12:58 AM on Saturday 20 Dec 2014 (Local Time) from KMEI Reporting Station
Overcast Overcast  
Wind Chill:   Ceiling: 800
Heat Index:   Visibility: 10mi
Dew Point:   Wind: 7mph
Humidity: 93%   Direction: 10°N
Pressure: 30.16"   Gusts: NA
Location:  31.6272°N, 88.354°W
Report Text: KMEI 200658Z AUTO 01006KT 10SM OVC008 06/05 A3016 RMK AO2 SLP211 T00610050
Loading
Personal Weather Stations






























Interactive Weather Map New forecast layout! Learn more

10-Day Weather Forecast

Advertisements
Track Severe Weather on mobile